createdAt,value
2023-06-30T00:01:16.185Z,6.50
2023-06-30T00:05:19.287Z,3.30
2023-06-30T00:09:22.683Z,4.85
2023-06-30T00:13:26.859Z,6.07
2023-06-30T00:17:29.734Z,7.10
2023-06-30T00:21:32.781Z,5.40
2023-06-30T00:25:35.741Z,4.60
2023-06-30T00:29:39.971Z,9.07
2023-06-30T00:33:42.806Z,4.85
2023-06-30T00:37:46.162Z,7.25
2023-06-30T00:41:49.039Z,5.68
2023-06-30T00:45:53.331Z,4.78
2023-06-30T00:49:56.260Z,9.38
2023-06-30T00:53:59.265Z,7.70
2023-06-30T00:58:02.671Z,7.43
2023-06-30T01:02:14.425Z,8.07
2023-06-30T01:06:25.652Z,5.05
2023-06-30T01:10:30.674Z,8.02
2023-06-30T01:14:34.057Z,7.63
2023-06-30T01:18:42.469Z,9.70
2023-06-30T01:22:48.455Z,14.18
2023-06-30T01:26:51.960Z,7.07
2023-06-30T01:30:55.408Z,6.63
2023-06-30T01:34:59.820Z,7.18
2023-06-30T01:39:02.691Z,7.55
2023-06-30T01:43:06.211Z,7.05
2023-06-30T01:47:11.380Z,6.28
2023-06-30T01:51:16.619Z,7.90
2023-06-30T01:55:20.263Z,6.93
2023-06-30T01:59:23.151Z,10.90
2023-06-30T02:03:26.182Z,5.50
2023-06-30T02:07:30.420Z,8.40
2023-06-30T02:11:33.413Z,9.70
2023-06-30T02:15:36.356Z,7.72
2023-06-30T02:19:39.320Z,10.15
2023-06-30T02:23:43.777Z,6.55
2023-06-30T02:27:47.186Z,8.00
2023-06-30T02:31:54.810Z,9.00
2023-06-30T02:35:58.228Z,6.57
2023-06-30T02:40:02.424Z,11.85
2023-06-30T02:44:06.592Z,6.18
2023-06-30T02:48:09.820Z,5.47
2023-06-30T02:52:12.715Z,6.57
2023-06-30T02:56:16.951Z,6.35
2023-06-30T03:00:21.636Z,8.55
2023-06-30T03:04:25.184Z,7.00
2023-06-30T03:08:28.167Z,8.13
2023-06-30T03:12:32.598Z,10.35
2023-06-30T03:16:37.708Z,8.48
2023-06-30T03:20:40.810Z,9.77
2023-06-30T03:24:43.692Z,8.93
2023-06-30T03:28:47.887Z,12.00
2023-06-30T03:32:50.972Z,9.60
2023-06-30T03:36:53.811Z,9.20
2023-06-30T03:40:58.737Z,7.80
2023-06-30T03:45:07.861Z,8.18
2023-06-30T03:49:10.773Z,9.77
2023-06-30T03:53:15.957Z,7.28
2023-06-30T03:57:18.793Z,7.93
2023-06-30T04:01:23.046Z,10.30
2023-06-30T04:05:25.883Z,13.48
2023-06-30T04:09:28.691Z,13.10
2023-06-30T04:13:31.531Z,11.77
2023-06-30T04:17:35.821Z,13.65
2023-06-30T04:21:38.898Z,14.38
2023-06-30T04:25:41.763Z,12.45
2023-06-30T04:29:44.624Z,17.23
2023-06-30T04:33:48.839Z,26.23
2023-06-30T04:37:51.677Z,15.13
2023-06-30T04:41:54.514Z,19.27
2023-06-30T04:45:58.667Z,20.25
2023-06-30T04:50:03.896Z,16.35
2023-06-30T04:54:06.767Z,18.90
2023-06-30T04:58:09.616Z,20.35
2023-06-30T05:02:12.538Z,19.77
2023-06-30T05:06:16.805Z,19.52
2023-06-30T05:10:19.683Z,20.58
2023-06-30T05:14:22.581Z,23.42
2023-06-30T05:18:25.492Z,17.40
2023-06-30T05:22:29.702Z,18.17
2023-06-30T05:26:32.820Z,22.80
2023-06-30T05:30:36.101Z,23.30
2023-06-30T05:34:38.922Z,23.20
2023-06-30T05:38:43.166Z,20.33
2023-06-30T05:42:46.035Z,24.65
2023-06-30T05:46:48.998Z,29.42
2023-06-30T05:50:51.919Z,22.02
2023-06-30T05:54:56.285Z,23.45
2023-06-30T05:59:00.361Z,26.35
2023-06-30T06:03:03.660Z,23.85
2023-06-30T06:07:06.865Z,24.95
2023-06-30T06:11:11.222Z,27.35
2023-06-30T06:15:14.076Z,25.88
2023-06-30T06:19:18.179Z,32.50
2023-06-30T06:23:21.063Z,28.92
2023-06-30T06:27:25.478Z,25.58
2023-06-30T06:31:28.518Z,29.88
2023-06-30T06:35:31.511Z,27.77
2023-06-30T06:39:34.341Z,33.35
2023-06-30T06:43:38.597Z,34.47
2023-06-30T06:48:20.046Z,34.47
2023-06-30T06:52:22.916Z,31.20
2023-06-30T06:56:25.808Z,35.97
2023-06-30T07:00:30.014Z,34.47
2023-06-30T07:04:32.850Z,35.25
2023-06-30T07:08:36.366Z,34.15
2023-06-30T07:12:39.246Z,35.97
2023-06-30T07:16:43.595Z,36.05
2023-06-30T07:20:46.523Z,35.40
2023-06-30T07:24:49.477Z,33.97
2023-06-30T07:28:52.341Z,40.83
2023-06-30T07:32:57.241Z,37.67
2023-06-30T07:37:00.087Z,30.60
2023-06-30T07:41:02.966Z,35.92
2023-06-30T07:45:07.335Z,36.17
2023-06-30T07:49:11.512Z,34.13
2023-06-30T07:53:14.364Z,35.83
2023-06-30T07:57:17.224Z,36.15
2023-06-30T08:01:20.061Z,29.48
2023-06-30T08:05:24.490Z,29.40
2023-06-30T08:09:27.751Z,25.75
2023-06-30T08:13:30.606Z,25.98
2023-06-30T08:17:51.980Z,32.47
2023-06-30T08:21:57.612Z,27.38
2023-06-30T08:26:00.586Z,24.10
2023-06-30T08:30:03.452Z,27.80
2023-06-30T08:34:06.674Z,25.02
2023-06-30T08:38:11.170Z,29.40
2023-06-30T08:42:17.037Z,26.83
2023-06-30T08:46:23.720Z,25.90
2023-06-30T08:50:27.620Z,25.23
2023-06-30T08:54:33.938Z,27.63
2023-06-30T09:02:41.508Z,23.92
2023-06-30T09:06:48.798Z,28.23
2023-06-30T09:10:54.086Z,26.73
2023-06-30T09:15:01.002Z,23.25
2023-06-30T09:19:03.886Z,22.15
2023-06-30T09:23:06.801Z,19.85
2023-06-30T09:27:12.630Z,24.00
2023-06-30T09:31:17.695Z,23.48
2023-06-30T09:35:20.800Z,21.20
2023-06-30T09:39:24.697Z,20.73
2023-06-30T09:43:29.133Z,20.90
2023-06-30T09:47:32.379Z,18.98
2023-06-30T09:51:35.640Z,20.15
2023-06-30T09:55:49.793Z,28.20
2023-06-30T09:59:54.069Z,26.95
2023-06-30T10:03:57.753Z,29.23
2023-06-30T10:08:02.181Z,29.48
2023-06-30T10:12:06.611Z,30.92
2023-06-30T10:16:11.520Z,27.23
2023-06-30T10:20:14.490Z,26.20
2023-06-30T10:24:19.356Z,26.30
2023-06-30T10:28:23.065Z,23.10
2023-06-30T10:32:27.281Z,25.40
2023-06-30T10:36:30.934Z,26.80
2023-06-30T10:40:34.102Z,24.80
2023-06-30T10:44:40.664Z,26.48
2023-06-30T10:48:45.696Z,28.90
2023-06-30T10:52:53.016Z,25.67
2023-06-30T10:57:07.239Z,28.42
2023-06-30T11:01:11.798Z,26.27
2023-06-30T11:05:25.287Z,24.80
2023-06-30T11:09:28.164Z,23.75
2023-06-30T11:13:38.239Z,23.10
2023-06-30T11:18:00.960Z,20.27
2023-06-30T11:22:27.436Z,23.17
2023-06-30T11:26:30.500Z,21.58
2023-06-30T11:30:36.834Z,22.63
2023-06-30T11:34:39.917Z,32.72
2023-06-30T11:38:45.727Z,19.52
2023-06-30T11:42:48.595Z,20.55
2023-06-30T11:46:53.981Z,23.08
2023-06-30T11:50:57.983Z,20.77
2023-06-30T11:55:06.679Z,20.27
2023-06-30T11:59:09.510Z,17.63
2023-06-30T12:03:17.012Z,19.85
2023-06-30T12:07:23.432Z,17.95
2023-06-30T12:11:30.633Z,17.73
2023-06-30T12:15:33.747Z,16.65
2023-06-30T12:19:36.580Z,16.52
2023-06-30T12:23:42.242Z,18.83
2023-06-30T12:27:46.507Z,23.38
2023-06-30T12:31:49.461Z,21.35
2023-06-30T12:35:52.345Z,20.40
2023-06-30T12:39:55.185Z,18.50
2023-06-30T12:44:02.207Z,15.85
2023-06-30T12:48:05.822Z,15.48
2023-06-30T12:52:09.284Z,15.98
2023-06-30T12:56:12.079Z,16.45
2023-06-30T13:00:18.311Z,18.93
2023-06-30T13:04:21.157Z,16.10
2023-06-30T13:08:24.030Z,18.20
2023-06-30T13:12:27.478Z,19.10
2023-06-30T13:16:31.765Z,18.40
2023-06-30T13:20:34.598Z,22.00
2023-06-30T13:24:37.394Z,21.70
2023-06-30T13:28:40.280Z,23.20
2023-06-30T13:32:45.083Z,24.13
2023-06-30T13:36:47.961Z,25.80
2023-06-30T13:40:50.838Z,32.85
2023-06-30T13:44:53.704Z,29.67
2023-06-30T13:48:57.857Z,38.38
2023-06-30T13:53:00.690Z,21.75
2023-06-30T13:57:03.600Z,21.17
2023-06-30T14:01:07.169Z,19.13
2023-06-30T14:05:12.877Z,17.58
2023-06-30T14:09:15.807Z,19.02
2023-06-30T14:13:18.640Z,18.15
2023-06-30T14:17:21.509Z,22.23
2023-06-30T14:21:25.729Z,19.75
2023-06-30T14:25:28.693Z,18.90
2023-06-30T14:29:31.544Z,17.90
2023-06-30T14:33:34.561Z,20.58
2023-06-30T14:37:38.797Z,18.27
2023-06-30T14:41:49.988Z,15.90
2023-06-30T14:46:00.462Z,19.80
2023-06-30T14:50:03.339Z,17.13
2023-06-30T14:54:07.674Z,20.52
2023-06-30T14:58:10.979Z,17.10
2023-06-30T15:02:14.915Z,19.63
2023-06-30T15:06:17.958Z,19.00
2023-06-30T15:10:22.150Z,20.35
2023-06-30T15:14:25.232Z,20.17
2023-06-30T15:18:28.071Z,18.88
2023-06-30T15:22:32.081Z,27.98
2023-06-30T15:26:36.390Z,22.85
2023-06-30T15:30:39.301Z,21.75
2023-06-30T15:34:42.163Z,22.92
2023-06-30T15:38:45.288Z,23.38
2023-06-30T15:42:49.524Z,24.02
2023-06-30T15:46:52.402Z,29.33
2023-06-30T15:50:55.291Z,24.98
2023-06-30T15:55:08.551Z,24.40
2023-06-30T15:59:12.833Z,24.25
2023-06-30T16:03:15.978Z,31.45
2023-06-30T16:07:18.966Z,27.33
2023-06-30T16:11:21.811Z,27.38
2023-06-30T16:15:26.038Z,26.85
2023-06-30T16:19:29.056Z,25.45
2023-06-30T16:23:31.937Z,26.50
2023-06-30T16:27:34.837Z,21.38
2023-06-30T16:31:39.111Z,27.52
2023-06-30T16:35:41.994Z,23.20
2023-06-30T16:39:45.109Z,23.15
2023-06-30T16:43:47.972Z,23.35
2023-06-30T16:47:52.221Z,26.40
2023-06-30T16:51:55.116Z,24.95
2023-06-30T16:55:58.097Z,27.75
2023-06-30T17:00:04.737Z,27.55
2023-06-30T17:04:09.260Z,31.75
2023-06-30T17:08:12.148Z,31.90
2023-06-30T17:12:15.077Z,28.13
2023-06-30T17:16:18.237Z,30.63
2023-06-30T17:20:22.456Z,28.17
2023-06-30T17:24:25.781Z,29.80
2023-06-30T17:28:28.709Z,27.05
2023-06-30T17:32:31.712Z,26.42
2023-06-30T17:36:36.232Z,26.30
2023-06-30T17:40:39.063Z,25.35
2023-06-30T17:44:42.574Z,26.65
2023-06-30T17:48:45.524Z,26.33
2023-06-30T17:52:49.748Z,28.25
2023-06-30T17:56:52.654Z,23.92
2023-06-30T18:00:55.477Z,28.52
2023-06-30T18:04:58.728Z,27.00
2023-06-30T18:09:03.233Z,24.23
2023-06-30T18:13:06.033Z,27.25
2023-06-30T18:17:08.896Z,24.80
2023-06-30T18:21:12.798Z,26.80
2023-06-30T18:25:17.069Z,25.80
2023-06-30T18:29:22.586Z,27.30
2023-06-30T18:33:25.523Z,25.30
2023-06-30T18:37:30.176Z,27.90
2023-06-30T18:41:34.527Z,24.23
2023-06-30T18:45:37.336Z,25.25
2023-06-30T18:49:40.176Z,26.35
2023-06-30T18:53:43.052Z,26.08
2023-06-30T18:57:47.282Z,27.33
2023-06-30T19:01:51.537Z,27.98
2023-06-30T19:05:59.970Z,25.35
2023-06-30T19:10:02.798Z,27.27
2023-06-30T19:14:07.019Z,29.40
2023-06-30T19:18:09.897Z,34.63
2023-06-30T19:22:12.858Z,25.63
2023-06-30T19:26:16.119Z,31.55
2023-06-30T19:30:22.267Z,26.52
2023-06-30T19:34:25.821Z,28.77
2023-06-30T19:38:29.574Z,29.38
2023-06-30T19:42:32.401Z,27.00
2023-06-30T19:46:36.785Z,26.80
2023-06-30T19:50:39.848Z,26.75
2023-06-30T19:54:44.595Z,28.23
2023-06-30T19:58:47.759Z,28.45
2023-06-30T20:02:52.051Z,28.55
2023-06-30T20:06:54.953Z,28.50
2023-06-30T20:10:57.807Z,33.72
2023-06-30T20:15:01.819Z,32.40
2023-06-30T20:19:06.096Z,30.92
2023-06-30T20:23:08.938Z,34.65
2023-06-30T20:27:11.759Z,36.85
2023-06-30T20:31:14.624Z,37.20
2023-06-30T20:35:20.074Z,37.05
2023-06-30T20:39:22.984Z,38.80
2023-06-30T20:43:25.896Z,35.15
2023-06-30T20:47:28.812Z,37.83
2023-06-30T20:51:33.147Z,43.95
2023-06-30T20:55:36.009Z,38.70
2023-06-30T20:59:38.847Z,37.40
2023-06-30T21:03:41.927Z,37.97
2023-06-30T21:07:46.230Z,41.97
2023-06-30T21:11:49.365Z,42.53
2023-06-30T21:15:52.347Z,43.20
2023-06-30T21:19:55.246Z,45.30
2023-06-30T21:23:59.486Z,42.10
2023-06-30T21:28:02.645Z,41.35
2023-06-30T21:32:08.285Z,40.47
2023-06-30T21:36:11.754Z,41.80
2023-06-30T21:40:16.168Z,44.20
2023-06-30T21:44:19.224Z,46.72
2023-06-30T21:48:22.159Z,41.78
2023-06-30T21:52:25.134Z,44.55
2023-06-30T21:56:29.383Z,41.05
2023-06-30T22:00:32.214Z,39.58
2023-06-30T22:04:35.123Z,37.60
2023-06-30T22:08:37.958Z,42.88
2023-06-30T22:12:42.132Z,40.85
2023-06-30T22:16:45.798Z,36.58
2023-06-30T22:20:48.952Z,38.63
2023-06-30T22:24:51.993Z,41.10
2023-06-30T22:28:56.225Z,42.05
2023-06-30T22:32:59.220Z,42.13
2023-06-30T22:37:02.150Z,41.03
2023-06-30T22:41:05.084Z,39.20
2023-06-30T22:45:10.379Z,41.97
2023-06-30T22:49:13.272Z,43.55
2023-06-30T22:53:16.264Z,40.70
2023-06-30T22:57:19.126Z,46.95
2023-06-30T23:01:23.571Z,44.00
2023-06-30T23:05:26.486Z,47.13
2023-06-30T23:09:29.306Z,42.47
2023-06-30T23:13:32.144Z,43.75
2023-06-30T23:17:36.587Z,43.30
2023-06-30T23:21:39.940Z,48.10
2023-06-30T23:25:42.871Z,44.13
2023-06-30T23:29:50.147Z,41.58
2023-06-30T23:33:56.385Z,38.95
2023-06-30T23:37:59.229Z,36.05
2023-06-30T23:42:02.105Z,43.55
2023-06-30T23:46:05.022Z,40.03
2023-06-30T23:50:11.381Z,36.00
2023-06-30T23:58:17.628Z,38.40
